Time;durP1;ratioP1;P1;durP2;ratioP2;P2;SDS_P1;SDS_P2;PMS_P1;PMS_P2;Temp;Humidity;BMP_temperature;BMP_pressure;BME280_temperature;BME280_humidity;BME280_pressure;Samples;Min_cycle;Max_cycle;Signal;HPM_P1;HPM_P2
2022/03/25 00:00:28;;;;;;;46.93;22.01;;;9.10;74.70;;;;;;4671695;28;10001956;-70
2022/03/25 00:02:54;;;;;;;42.88;21.52;;;9.10;74.90;;;;;;5040197;28;20505;-70
2022/03/25 00:05:20;;;;;;;51.55;23.52;;;9.00;75.10;;;;;;5036575;28;20024;-71
2022/03/25 00:07:46;;;;;;;48.15;23.55;;;9.00;75.20;;;;;;5058639;28;20066;-70
2022/03/25 00:10:12;;;;;;;47.88;23.25;;;9.00;75.40;;;;;;5038268;28;20038;-70
2022/03/25 00:12:37;;;;;;;45.63;23.00;;;8.90;75.60;;;;;;5052331;28;20025;-71
2022/03/25 00:15:03;;;;;;;50.95;22.05;;;8.90;75.60;;;;;;5054553;28;20041;-70
2022/03/25 00:17:29;;;;;;;48.78;22.27;;;8.90;75.70;;;;;;5050789;28;20506;-71
2022/03/25 00:19:54;;;;;;;48.20;23.42;;;8.90;75.70;;;;;;5058164;28;20378;-70
2022/03/25 00:22:20;;;;;;;49.92;22.65;;;8.90;75.90;;;;;;5051138;28;20559;-70
2022/03/25 00:24:46;;;;;;;47.38;22.77;;;8.90;76.00;;;;;;5048354;28;20047;-70
2022/03/25 00:27:12;;;;;;;45.22;22.15;;;8.90;76.00;;;;;;5049944;28;20025;-71
2022/03/25 00:29:37;;;;;;;44.53;21.45;;;8.80;76.10;;;;;;5053269;28;20048;-71
2022/03/25 00:32:04;;;;;;;45.53;22.52;;;8.80;76.30;;;;;;5041128;28;20035;-70
2022/03/25 00:34:30;;;;;;;42.38;22.98;;;8.80;76.70;;;;;;5030474;28;20033;-70
2022/03/25 00:36:55;;;;;;;44.85;21.85;;;8.60;77.50;;;;;;5049542;28;20052;-70
2022/03/25 00:39:21;;;;;;;46.08;24.08;;;8.40;78.20;;;;;;5051947;28;20067;-70
2022/03/25 00:41:47;;;;;;;42.42;22.65;;;8.20;79.10;;;;;;5057631;28;20040;-70
2022/03/25 00:44:13;;;;;;;39.03;22.63;;;8.10;79.80;;;;;;5060341;28;20312;-70
2022/03/25 00:46:39;;;;;;;41.03;23.05;;;7.90;80.60;;;;;;5044412;28;20028;-70
2022/03/25 00:49:06;;;;;;;44.17;23.95;;;7.80;81.30;;;;;;5049660;28;20108;-70
2022/03/25 00:51:31;;;;;;;42.65;24.40;;;7.60;82.20;;;;;;5050853;28;20063;-70
2022/03/25 00:53:57;;;;;;;48.22;26.60;;;7.50;82.50;;;;;;5042870;28;20499;-70
2022/03/25 00:56:24;;;;;;;44.40;25.20;;;7.40;83.20;;;;;;5048919;28;20032;-70
2022/03/25 00:58:50;;;;;;;44.72;24.08;;;7.20;84.50;;;;;;5046693;28;20066;-70
2022/03/25 01:01:15;;;;;;;40.35;22.42;;;7.10;84.60;;;;;;5046041;28;20264;-70
2022/03/25 01:03:41;;;;;;;43.22;24.42;;;6.90;85.40;;;;;;5057397;28;20028;-70
2022/03/25 01:06:07;;;;;;;43.92;25.13;;;6.80;86.10;;;;;;5052366;28;20029;-70
2022/03/25 01:08:32;;;;;;;42.85;23.83;;;6.80;86.80;;;;;;5043440;28;20397;-70
2022/03/25 01:10:58;;;;;;;44.42;24.15;;;6.70;87.40;;;;;;5050250;28;20381;-70
2022/03/25 01:13:24;;;;;;;41.40;23.92;;;6.60;88.00;;;;;;5037290;28;20101;-70
2022/03/25 01:15:49;;;;;;;40.65;23.67;;;6.50;88.50;;;;;;5042134;28;20040;-70
2022/03/25 01:18:15;;;;;;;41.45;22.60;;;6.50;88.90;;;;;;5042881;28;20143;-70
2022/03/25 01:20:41;;;;;;;40.17;22.35;;;6.40;89.40;;;;;;5054719;28;20028;-70
2022/03/25 01:23:08;;;;;;;41.67;21.58;;;6.40;89.90;;;;;;5053415;28;20453;-70
2022/03/25 01:25:34;;;;;;;40.45;22.13;;;6.40;90.10;;;;;;5044830;28;20405;-70
2022/03/25 01:27:59;;;;;;;41.08;20.92;;;6.30;90.30;;;;;;5054929;28;20453;-70
2022/03/25 01:30:25;;;;;;;42.95;22.08;;;6.30;90.40;;;;;;5039376;28;20159;-70
2022/03/25 01:32:50;;;;;;;41.50;22.38;;;6.30;90.60;;;;;;5042902;28;20017;-70
2022/03/25 01:35:16;;;;;;;50.10;24.35;;;6.30;90.70;;;;;;5048046;28;20089;-70
2022/03/25 01:37:43;;;;;;;40.88;22.42;;;6.20;90.90;;;;;;5043112;28;20075;-70
2022/03/25 01:40:09;;;;;;;39.70;22.42;;;6.20;91.10;;;;;;5050520;28;20040;-70
2022/03/25 01:42:37;;;;;;;39.92;21.40;;;6.20;91.40;;;;;;5043148;28;20172;-70
2022/03/25 01:45:04;;;;;;;42.30;22.25;;;6.10;92.00;;;;;;5047757;28;20028;-70
2022/03/25 01:47:32;;;;;;;39.10;22.30;;;6.00;92.00;;;;;;5045974;28;20032;-70
2022/03/25 01:49:58;;;;;;;49.55;23.30;;;6.00;92.30;;;;;;5052147;28;20017;-70
2022/03/25 01:52:24;;;;;;;40.35;22.90;;;6.10;92.80;;;;;;5044927;28;20029;-70
2022/03/25 01:54:50;;;;;;;45.53;24.35;;;6.30;92.50;;;;;;5043192;28;20107;-70
2022/03/25 01:57:18;;;;;;;50.50;24.27;;;6.50;92.10;;;;;;5039366;28;20037;-70
2022/03/25 01:59:44;;;;;;;45.03;23.70;;;6.70;91.70;;;;;;5053063;28;22632;-70
2022/03/25 02:02:11;;;;;;;43.25;24.38;;;6.90;91.30;;;;;;5045993;28;20032;-70
2022/03/25 02:04:37;;;;;;;45.38;24.70;;;7.00;91.10;;;;;;5040661;28;20040;-70
2022/03/25 02:07:04;;;;;;;44.20;23.85;;;7.10;90.90;;;;;;5046490;28;20025;-70
2022/03/25 02:09:31;;;;;;;51.85;24.25;;;7.10;90.70;;;;;;5042358;28;20020;-70
2022/03/25 02:11:57;;;;;;;44.15;23.30;;;7.10;90.50;;;;;;5050339;28;20028;-70
2022/03/25 02:14:23;;;;;;;41.40;22.65;;;7.20;90.40;;;;;;5047994;28;20018;-70
2022/03/25 02:16:50;;;;;;;45.92;24.23;;;7.20;90.40;;;;;;5063039;28;20107;-70
2022/03/25 02:19:18;;;;;;;41.42;22.77;;;7.10;90.40;;;;;;5045655;28;20013;-70
2022/03/25 02:21:45;;;;;;;46.05;24.35;;;7.10;90.60;;;;;;5048526;28;20063;-70
2022/03/25 02:24:12;;;;;;;47.60;24.70;;;7.10;90.70;;;;;;5039161;28;20494;-70
2022/03/25 02:26:38;;;;;;;48.53;24.00;;;7.10;90.80;;;;;;5028975;28;20021;-70
2022/03/25 02:29:05;;;;;;;48.25;24.30;;;7.10;90.80;;;;;;5036049;28;20088;-70
2022/03/25 02:31:31;;;;;;;46.28;23.88;;;7.10;90.90;;;;;;5039409;28;20059;-70
2022/03/25 02:34:05;;;;;;;46.78;24.50;;;7.10;90.90;;;;;;5042167;28;20021;-70
2022/03/25 02:36:42;;;;;;;49.33;25.42;;;7.10;90.90;;;;;;5035958;28;20111;-70
2022/03/25 02:39:09;;;;;;;58.63;26.52;;;7.10;91.00;;;;;;5040499;28;20063;-70
2022/03/25 02:41:35;;;;;;;50.42;24.92;;;7.10;91.10;;;;;;5047710;28;20111;-70
2022/03/25 02:44:00;;;;;;;49.85;24.73;;;7.00;91.20;;;;;;5032467;28;20198;-70
2022/03/25 02:46:27;;;;;;;50.78;25.35;;;7.00;91.20;;;;;;5047880;28;20610;-70
2022/03/25 02:48:52;;;;;;;50.72;26.45;;;7.00;91.40;;;;;;5049213;28;20164;-70
2022/03/25 02:51:18;;;;;;;49.75;26.42;;;6.80;91.60;;;;;;5047781;28;20040;-70
2022/03/25 02:53:44;;;;;;;52.83;26.63;;;6.80;91.90;;;;;;5044243;28;20021;-70
2022/03/25 02:56:09;;;;;;;49.72;25.27;;;6.70;92.00;;;;;;5039250;28;20109;-70
2022/03/25 02:58:35;;;;;;;48.97;25.00;;;6.70;92.10;;;;;;5039482;28;20066;-70
2022/03/25 03:01:01;;;;;;;46.60;25.67;;;6.70;92.30;;;;;;5051549;28;20040;-70
2022/03/25 03:03:27;;;;;;;52.38;26.80;;;6.70;92.50;;;;;;5056941;28;20088;-70
2022/03/25 03:05:53;;;;;;;48.30;26.00;;;6.60;92.60;;;;;;5041105;28;20025;-70
2022/03/25 03:08:18;;;;;;;53.78;26.67;;;6.60;92.70;;;;;;5050999;28;20063;-70
2022/03/25 03:10:44;;;;;;;53.55;26.92;;;6.60;92.80;;;;;;5051562;28;20049;-70
2022/03/25 03:13:10;;;;;;;52.53;26.75;;;6.60;92.90;;;;;;5052467;28;20021;-70
2022/03/25 03:15:36;;;;;;;49.63;26.40;;;6.60;93.00;;;;;;5044798;28;20040;-70
2022/03/25 03:18:02;;;;;;;50.95;26.35;;;6.50;93.10;;;;;;5049305;28;20970;-70
2022/03/25 03:20:28;;;;;;;46.40;25.27;;;6.50;93.20;;;;;;5053395;28;20095;-70
2022/03/25 03:22:56;;;;;;;53.42;26.48;;;6.40;93.30;;;;;;5044730;28;20420;-70
2022/03/25 03:25:22;;;;;;;56.47;26.17;;;6.50;93.50;;;;;;5044861;28;20436;-70
2022/03/25 03:27:48;;;;;;;50.50;25.02;;;6.40;93.60;;;;;;5045492;28;20061;-70
2022/03/25 03:30:14;;;;;;;50.40;26.73;;;6.40;93.70;;;;;;5041811;28;20104;-70
2022/03/25 03:32:40;;;;;;;54.45;27.52;;;6.30;93.70;;;;;;5055360;28;20477;-70
2022/03/25 03:35:07;;;;;;;55.30;27.95;;;6.30;93.90;;;;;;5038401;28;20565;-70
2022/03/25 03:37:40;;;;;;;53.42;28.17;;;6.30;94.10;;;;;;5043564;28;20074;-70
2022/03/25 03:40:06;;;;;;;;;;;6.30;94.10;;;;;;5039467;28;20682;-70
2022/03/25 03:42:32;;;;;;;54.25;27.58;;;6.30;94.30;;;;;;5039853;28;19912;-70
2022/03/25 03:44:57;;;;;;;63.90;28.50;;;6.20;94.40;;;;;;5048886;28;20046;-70
2022/03/25 03:47:23;;;;;;;55.22;27.15;;;6.20;94.60;;;;;;5046143;28;20480;-70
2022/03/25 03:49:49;;;;;;;58.55;27.30;;;6.20;94.70;;;;;;5047018;28;20117;-70
2022/03/25 03:52:14;;;;;;;52.78;26.48;;;6.20;94.80;;;;;;5043384;28;20021;-70
2022/03/25 03:54:40;;;;;;;47.72;26.42;;;6.20;94.90;;;;;;5048923;28;20085;-70
2022/03/25 03:57:09;;;;;;;50.38;25.77;;;6.20;95.00;;;;;;5048155;28;20033;-70
2022/03/25 03:59:35;;;;;;;52.38;27.17;;;6.20;95.10;;;;;;5057837;28;20020;-70
2022/03/25 04:02:01;;;;;;;50.65;26.08;;;6.10;95.30;;;;;;5050597;28;20412;-70
2022/03/25 04:04:26;;;;;;;50.53;26.02;;;6.10;95.40;;;;;;5049410;28;20041;-70
2022/03/25 04:06:52;;;;;;;46.00;24.98;;;6.10;95.40;;;;;;5049124;28;20436;-70
2022/03/25 04:09:17;;;;;;;49.60;26.13;;;6.10;95.60;;;;;;5056598;28;20040;-70
2022/03/25 04:11:43;;;;;;;48.67;25.70;;;6.00;95.70;;;;;;5049230;28;20035;-70
2022/03/25 04:14:09;;;;;;;47.83;25.00;;;6.00;95.90;;;;;;5048690;28;20028;-70
2022/03/25 04:16:35;;;;;;;46.88;25.90;;;6.00;95.90;;;;;;5039503;28;20075;-70
2022/03/25 04:19:01;;;;;;;46.92;26.02;;;5.90;96.10;;;;;;5039113;28;20043;-70
2022/03/25 04:21:26;;;;;;;55.05;26.65;;;5.90;96.30;;;;;;5040942;28;20026;-70
2022/03/25 04:23:52;;;;;;;50.72;26.05;;;5.90;96.50;;;;;;5045544;28;20159;-69
2022/03/25 04:26:18;;;;;;;45.38;26.23;;;5.90;96.40;;;;;;5040199;28;20029;-70
2022/03/25 04:28:43;;;;;;;55.80;27.13;;;5.90;96.50;;;;;;5055536;28;20119;-70
2022/03/25 04:31:09;;;;;;;54.75;26.80;;;5.90;96.60;;;;;;5052001;28;20025;-70
2022/03/25 04:33:36;;;;;;;51.50;27.95;;;5.90;96.60;;;;;;5039001;28;20044;-70
2022/03/25 04:36:01;;;;;;;51.85;27.10;;;6.00;96.80;;;;;;5034871;28;20044;-70
2022/03/25 04:38:28;;;;;;;56.28;27.95;;;5.90;96.80;;;;;;5045749;28;20222;-70
2022/03/25 04:40:54;;;;;;;54.20;27.85;;;5.90;96.90;;;;;;5052216;28;20096;-70
2022/03/25 04:43:19;;;;;;;53.50;28.13;;;5.90;96.90;;;;;;5055502;28;20063;-70
2022/03/25 04:45:45;;;;;;;51.15;27.23;;;5.90;97.10;;;;;;5044510;28;20028;-70
2022/03/25 04:48:11;;;;;;;51.53;27.40;;;5.90;97.20;;;;;;5038042;28;20480;-70
2022/03/25 04:50:38;;;;;;;56.03;27.13;;;5.80;97.30;;;;;;5042767;28;20365;-70
2022/03/25 04:53:04;;;;;;;53.33;26.50;;;5.80;97.30;;;;;;5051916;28;20028;-70
2022/03/25 04:55:30;;;;;;;47.95;25.95;;;5.90;97.30;;;;;;5038076;28;20029;-69
2022/03/25 04:57:56;;;;;;;42.80;24.48;;;5.80;97.30;;;;;;5045068;28;20055;-70
2022/03/25 05:00:22;;;;;;;46.67;24.88;;;5.70;97.40;;;;;;5045718;28;20021;-70
2022/03/25 05:02:48;;;;;;;51.65;27.08;;;5.60;97.70;;;;;;5040764;28;20531;-70
2022/03/25 05:05:15;;;;;;;56.08;26.15;;;5.60;98.10;;;;;;5042848;28;20272;-70
2022/03/25 05:07:42;;;;;;;48.42;25.77;;;5.60;98.30;;;;;;5040378;28;20020;-70
2022/03/25 05:10:08;;;;;;;54.78;27.52;;;5.60;98.30;;;;;;5046376;28;20056;-70
2022/03/25 05:12:34;;;;;;;48.50;25.65;;;5.60;98.50;;;;;;5050631;28;20024;-70
2022/03/25 05:15:00;;;;;;;55.50;26.95;;;5.60;98.60;;;;;;5035964;28;20032;-70
2022/03/25 05:17:26;;;;;;;53.83;26.25;;;5.60;98.80;;;;;;5036330;28;20025;-70
2022/03/25 05:19:51;;;;;;;47.63;26.63;;;5.60;99.00;;;;;;5041037;28;20116;-70
2022/03/25 05:22:17;;;;;;;51.67;26.63;;;5.50;99.00;;;;;;5044783;28;20121;-70
2022/03/25 05:24:42;;;;;;;49.08;26.15;;;5.50;99.10;;;;;;5043041;28;20055;-70
2022/03/25 05:27:08;;;;;;;49.13;26.92;;;5.50;99.10;;;;;;5047542;28;20027;-70
2022/03/25 05:29:34;;;;;;;49.42;27.55;;;5.60;99.20;;;;;;5028490;28;20041;-70
2022/03/25 05:31:59;;;;;;;50.97;27.08;;;5.60;99.30;;;;;;5021363;28;20721;-70
2022/03/25 05:34:25;;;;;;;49.45;26.17;;;5.60;99.80;;;;;;5024016;28;20029;-70
2022/03/25 05:36:50;;;;;;;51.25;27.50;;;5.50;99.50;;;;;;5022839;28;20025;-69
2022/03/25 05:39:16;;;;;;;54.15;27.95;;;5.50;99.60;;;;;;5022341;28;20112;-70
2022/03/25 05:41:42;;;;;;;50.55;28.02;;;5.50;99.60;;;;;;5021874;28;20091;-70
2022/03/25 05:44:08;;;;;;;57.40;28.77;;;5.50;99.90;;;;;;5022601;28;20037;-70
2022/03/25 05:46:34;;;;;;;54.25;28.50;;;5.50;99.90;;;;;;5017120;28;20026;-70
2022/03/25 05:49:01;;;;;;;56.72;28.42;;;5.50;99.90;;;;;;5028884;28;20032;-70
2022/03/25 05:51:26;;;;;;;57.50;28.15;;;5.40;99.90;;;;;;5022100;28;20036;-70
2022/03/25 05:53:52;;;;;;;52.38;28.05;;;5.50;99.90;;;;;;5019200;28;20019;-70
2022/03/25 05:56:18;;;;;;;60.28;29.50;;;5.50;99.90;;;;;;5019493;28;20037;-69
2022/03/25 05:58:43;;;;;;;53.22;28.58;;;5.50;99.90;;;;;;4322320;28;10001039;-68
2022/03/25 06:01:09;;;;;;;64.10;29.08;;;5.40;99.90;;;;;;5011190;28;20029;-70
2022/03/25 06:03:35;;;;;;;52.03;27.63;;;5.40;99.90;;;;;;5013312;28;20029;-70
2022/03/25 06:06:03;;;;;;;54.33;29.65;;;5.40;99.90;;;;;;5007583;28;20172;-70
2022/03/25 06:08:29;;;;;;;63.30;30.17;;;5.40;99.90;;;;;;5011821;28;20080;-69
2022/03/25 06:10:55;;;;;;;55.28;28.80;;;5.40;99.90;;;;;;5014452;28;20042;-70
2022/03/25 06:13:21;;;;;;;51.28;28.83;;;5.40;99.90;;;;;;4999745;28;20150;-69
2022/03/25 06:15:48;;;;;;;57.65;30.05;;;5.40;99.90;;;;;;5009790;28;20501;-70
2022/03/25 06:18:14;;;;;;;52.20;27.77;;;5.50;99.90;;;;;;5010611;28;20574;-70
2022/03/25 06:20:40;;;;;;;51.85;28.92;;;5.50;99.90;;;;;;5011437;28;20046;-70
2022/03/25 06:23:05;;;;;;;50.72;29.00;;;5.60;99.90;;;;;;5018919;28;20033;-70
2022/03/25 06:25:32;;;;;;;55.45;29.58;;;5.60;99.90;;;;;;5012630;28;20128;-70
2022/03/25 06:28:00;;;;;;;60.92;29.35;;;5.60;99.90;;;;;;5006052;28;20030;-70
2022/03/25 06:30:34;;;;;;;50.72;28.13;;;5.60;99.90;;;;;;5027947;28;20054;-70
2022/03/25 06:33:04;;;;;;;56.50;29.85;;;5.60;99.90;;;;;;5022466;28;20056;-70
2022/03/25 06:35:30;;;;;;;53.15;28.02;;;5.70;99.90;;;;;;5016030;28;20581;-70
2022/03/25 06:37:56;;;;;;;54.05;28.08;;;5.80;99.90;;;;;;5038094;28;20052;-70
2022/03/25 06:40:23;;;;;;;55.90;28.50;;;5.80;99.90;;;;;;5036269;28;20474;-70
2022/03/25 06:42:50;;;;;;;52.97;29.27;;;5.80;99.90;;;;;;5041133;28;20743;-70
2022/03/25 06:45:18;;;;;;;52.10;28.63;;;5.90;99.90;;;;;;5042281;28;20307;-70
2022/03/25 06:47:44;;;;;;;58.63;29.20;;;5.90;99.90;;;;;;5043234;28;20029;-69
2022/03/25 06:50:13;;;;;;;61.92;31.58;;;5.90;99.90;;;;;;5034085;28;20021;-70
2022/03/25 06:52:39;;;;;;;52.95;28.77;;;5.90;99.90;;;;;;5040410;28;20028;-69
2022/03/25 06:55:06;;;;;;;58.65;29.48;;;5.90;99.90;;;;;;5034533;28;20036;-69
2022/03/25 06:57:31;;;;;;;56.65;29.08;;;5.90;99.90;;;;;;5037203;28;21132;-70
2022/03/25 06:59:57;;;;;;;52.92;28.42;;;5.90;99.90;;;;;;5046153;28;20043;-70
2022/03/25 07:02:23;;;;;;;55.10;29.67;;;6.00;99.90;;;;;;5039559;28;20044;-70
2022/03/25 07:04:50;;;;;;;55.97;29.08;;;6.00;99.90;;;;;;5039007;28;20116;-70
2022/03/25 07:07:19;;;;;;;59.28;28.15;;;6.00;99.90;;;;;;5039814;28;20484;-70
2022/03/25 07:09:44;;;;;;;55.78;28.77;;;6.10;99.90;;;;;;5037741;28;20505;-70
2022/03/25 07:12:12;;;;;;;55.97;29.27;;;6.10;99.90;;;;;;5038733;28;20026;-70
2022/03/25 07:14:38;;;;;;;54.80;28.40;;;6.20;99.90;;;;;;5032984;28;20030;-70
2022/03/25 07:17:04;;;;;;;54.13;28.85;;;6.20;99.90;;;;;;5031100;28;20045;-70
2022/03/25 07:19:29;;;;;;;51.45;27.52;;;6.30;99.90;;;;;;5037338;28;20032;-70
2022/03/25 07:21:55;;;;;;;53.17;28.92;;;6.40;99.90;;;;;;5010915;28;20133;-70
2022/03/25 07:24:23;;;;;;;52.65;28.95;;;6.40;99.90;;;;;;5025195;28;20017;-70
2022/03/25 07:26:48;;;;;;;54.15;30.05;;;6.30;99.90;;;;;;5041493;28;20108;-70
2022/03/25 07:29:14;;;;;;;55.60;29.30;;;6.20;99.90;;;;;;5036771;28;20041;-70
2022/03/25 07:31:40;;;;;;;54.33;27.85;;;6.20;99.90;;;;;;5034533;28;20057;-70
2022/03/25 07:34:06;;;;;;;57.70;28.63;;;6.20;99.90;;;;;;5040166;28;20098;-70
2022/03/25 07:36:32;;;;;;;53.40;29.42;;;6.40;99.90;;;;;;5042089;28;20025;-71
2022/03/25 07:38:58;;;;;;;54.58;28.17;;;6.50;99.90;;;;;;5038698;28;20021;-69
2022/03/25 07:41:24;;;;;;;50.97;29.33;;;6.70;99.90;;;;;;5048030;28;20033;-70
2022/03/25 07:43:52;;;;;;;52.55;29.30;;;6.70;99.90;;;;;;5040793;28;20473;-70
2022/03/25 07:46:18;;;;;;;55.03;29.27;;;6.80;99.90;;;;;;5040547;28;20123;-70
2022/03/25 07:48:44;;;;;;;53.25;28.85;;;7.00;99.90;;;;;;5035165;28;20043;-70
2022/03/25 07:51:10;;;;;;;52.38;28.95;;;7.00;99.90;;;;;;5036678;28;20745;-70
2022/03/25 07:53:35;;;;;;;55.25;29.23;;;7.10;99.90;;;;;;5034849;28;20377;-70
2022/03/25 07:56:01;;;;;;;60.35;30.42;;;7.20;99.90;;;;;;5037762;28;20514;-70
2022/03/25 07:58:27;;;;;;;56.30;29.48;;;7.30;99.90;;;;;;5042091;28;20075;-70
2022/03/25 08:00:53;;;;;;;54.83;29.52;;;7.40;99.90;;;;;;5043784;28;20029;-70
2022/03/25 08:03:19;;;;;;;56.60;30.15;;;7.50;99.90;;;;;;5041274;28;20473;-69
2022/03/25 08:05:48;;;;;;;52.47;28.77;;;7.60;99.90;;;;;;5044856;28;20481;-70
2022/03/25 08:08:15;;;;;;;55.50;29.67;;;7.70;99.90;;;;;;5045516;28;20086;-70
2022/03/25 08:10:41;;;;;;;57.75;28.63;;;;;;;;;;5041601;28;20013;-70
2022/03/25 08:13:07;;;;;;;54.42;29.35;;;;;;;;;;5045230;28;20027;-70
2022/03/25 08:15:34;;;;;;;51.53;27.42;;;;;;;;;;5035097;28;20017;-70
2022/03/25 08:18:07;;;;;;;51.42;27.80;;;;;;;;;;5042919;28;20177;-69
2022/03/25 08:20:35;;;;;;;;;;;;;;;;;;5043176;28;20644;-69
2022/03/25 08:23:01;;;;;;;53.33;26.38;;;;;;;;;;5044122;28;19908;-70
2022/03/25 08:28:14;;;;;;;51.85;27.20;;;;;;;;;;5043661;28;20035;-70
2022/03/25 08:30:40;;;;;;;51.63;27.00;;;;;;;;;;5032832;28;20048;-70
2022/03/25 08:33:07;;;;;;;48.63;25.42;;;;;;;;;;5033325;28;20386;-69
2022/03/25 08:35:33;;;;;;;57.13;26.23;;;;;;;;;;5036913;28;20032;-69
2022/03/25 08:38:00;;;;;;;45.90;25.27;;;;;;;;;;5030342;28;20031;-70
2022/03/25 08:40:27;;;;;;;49.10;25.90;;;;;;;;;;5035792;28;20032;-70
2022/03/25 08:42:53;;;;;;;52.75;25.92;;;;;;;;;;5045162;28;20030;-69
2022/03/25 08:45:19;;;;;;;54.35;25.40;;;9.60;97.10;;;;;;5038063;28;20044;-70
2022/03/25 08:47:46;;;;;;;52.35;24.40;;;9.70;96.90;;;;;;5035451;28;20029;-70
2022/03/25 08:50:13;;;;;;;48.97;23.63;;;9.80;96.50;;;;;;5038613;28;20021;-70
2022/03/25 08:52:40;;;;;;;50.58;24.67;;;9.90;95.90;;;;;;5044709;28;20035;-70
2022/03/25 08:55:08;;;;;;;48.25;25.25;;;10.10;98.40;;;;;;5032989;28;20132;-70
2022/03/25 08:57:34;;;;;;;59.88;24.63;;;10.20;98.00;;;;;;5046302;28;20028;-70
2022/03/25 09:00:01;;;;;;;47.97;23.63;;;10.40;97.60;;;;;;5041516;28;20058;-70
2022/03/25 09:02:26;;;;;;;49.72;25.17;;;10.40;97.00;;;;;;5039886;28;20103;-70
2022/03/25 09:04:52;;;;;;;48.13;24.38;;;10.50;96.40;;;;;;5033503;28;20474;-70
2022/03/25 09:07:17;;;;;;;44.78;24.38;;;10.60;95.60;;;;;;5033923;28;20104;-70
2022/03/25 09:09:43;;;;;;;48.28;24.75;;;10.70;95.10;;;;;;5043997;28;20378;-70
2022/03/25 09:12:09;;;;;;;47.17;23.92;;;10.80;94.70;;;;;;5045138;28;20110;-70
2022/03/25 09:14:35;;;;;;;51.70;23.92;;;10.90;94.40;;;;;;5035373;28;20051;-70
2022/03/25 09:17:01;;;;;;;48.00;22.77;;;11.00;94.30;;;;;;5033462;28;20017;-70
2022/03/25 09:19:27;;;;;;;45.40;22.92;;;11.10;93.50;;;;;;5029836;28;20292;-70
2022/03/25 09:21:52;;;;;;;51.42;24.00;;;11.20;93.70;;;;;;5026875;28;20033;-70
2022/03/25 09:24:19;;;;;;;51.90;23.58;;;11.40;96.10;;;;;;5031820;28;20685;-69
2022/03/25 09:26:45;;;;;;;46.78;24.10;;;11.50;99.90;;;;;;5032525;28;20061;-69
2022/03/25 09:29:11;;;;;;;49.20;23.70;;;11.60;99.00;;;;;;5039430;28;20570;-70
2022/03/25 09:31:38;;;;;;;50.60;22.75;;;11.70;99.90;;;;;;5040732;28;20157;-71
2022/03/25 09:36:49;;;;;;;46.15;22.10;;;;;;;;;;5041393;28;20041;-69
2022/03/25 09:39:15;;;;;;;42.38;22.25;;;;;;;;;;5027556;28;20383;-71
2022/03/25 09:41:40;;;;;;;39.90;20.67;;;12.30;95.30;;;;;;5046876;28;20040;-71
2022/03/25 09:44:07;;;;;;;48.80;22.88;;;;;;;;;;5045996;28;20223;-70
2022/03/25 09:46:59;;;;;;;42.72;21.92;;;;;;;;;;5037486;28;20029;-70
2022/03/25 09:49:24;;;;;;;49.25;21.48;;;;;;;;;;5032187;28;20071;-71
2022/03/25 09:51:50;;;;;;;41.30;19.63;;;;;;;;;;5051530;28;20028;-71
2022/03/25 09:54:17;;;;;;;36.15;18.38;;;;;;;;;;5040747;28;20115;-71
2022/03/25 09:56:43;;;;;;;41.83;20.00;;;;;;;;;;5044887;28;20024;-70
2022/03/25 09:59:09;;;;;;;40.13;18.42;;;13.20;73.50;;;;;;5037159;28;20072;-70
2022/03/25 10:01:35;;;;;;;43.90;19.17;;;13.20;71.60;;;;;;5036937;28;20025;-71
2022/03/25 10:04:02;;;;;;;38.05;17.63;;;13.20;70.60;;;;;;5034927;28;20039;-71
2022/03/25 10:06:28;;;;;;;35.65;17.77;;;13.10;70.80;;;;;;5039755;28;20025;-72
2022/03/25 10:08:59;;;;;;;37.25;17.65;;;13.10;70.00;;;;;;5045307;28;20029;-71
2022/03/25 10:11:33;;;;;;;35.65;16.15;;;13.10;69.60;;;;;;5036551;28;20025;-72
2022/03/25 10:14:17;;;;;;;36.60;15.60;;;13.10;68.80;;;;;;5037139;28;20111;-71
2022/03/25 10:16:45;;;;;;;34.72;15.60;;;13.20;67.90;;;;;;5033226;28;20030;-72
2022/03/25 10:19:11;;;;;;;38.20;16.13;;;13.30;67.90;;;;;;5035823;28;20036;-71
2022/03/25 10:21:51;;;;;;;28.90;15.02;;;13.40;67.60;;;;;;5041976;28;20033;-71
2022/03/25 10:24:19;;;;;;;34.42;15.57;;;13.40;66.70;;;;;;5042785;28;20717;-72
2022/03/25 10:26:46;;;;;;;29.45;15.02;;;13.50;65.40;;;;;;5049324;28;20041;-70
2022/03/25 10:29:23;;;;;;;27.67;15.25;;;13.60;63.30;;;;;;5030393;28;20037;-72
2022/03/25 10:32:13;;;;;;;31.05;15.35;;;13.90;63.90;;;;;;5033889;28;20151;-69
2022/03/25 10:34:40;;;;;;;36.88;15.60;;;14.10;62.80;;;;;;5037829;28;20025;-71
2022/03/25 10:37:10;;;;;;;33.92;14.95;;;14.30;61.30;;;;;;5045106;28;20064;-70
2022/03/25 10:39:36;;;;;;;33.72;16.25;;;14.20;59.50;;;;;;5040261;28;20090;-70
2022/03/25 10:42:04;;;;;;;45.33;20.25;;;14.40;60.10;;;;;;5039719;28;20086;-70
2022/03/25 10:44:40;;;;;;;41.80;21.85;;;14.40;60.80;;;;;;5039290;28;20044;-70
2022/03/25 10:47:14;;;;;;;46.75;24.80;;;14.30;62.30;;;;;;5030865;28;20033;-70
2022/03/25 10:49:43;;;;;;;44.72;24.50;;;14.20;61.60;;;;;;5028599;28;20021;-69
2022/03/25 10:52:31;;;;;;;49.65;27.25;;;14.10;61.30;;;;;;5043122;28;20091;-69
2022/03/25 10:55:23;;;;;;;40.63;24.13;;;14.10;61.90;;;;;;5033437;28;20025;-70
2022/03/25 10:57:50;;;;;;;42.55;23.25;;;14.20;61.50;;;;;;5026863;28;20389;-70
2022/03/25 11:00:16;;;;;;;46.42;22.75;;;14.40;61.30;;;;;;5040037;28;20086;-69
2022/03/25 11:02:43;;;;;;;37.95;22.05;;;14.70;58.90;;;;;;5039443;28;20037;-70
2022/03/25 11:05:10;;;;;;;41.67;22.88;;;14.90;59.80;;;;;;5044959;28;20117;-69
2022/03/25 11:07:42;;;;;;;43.47;21.15;;;15.00;59.10;;;;;;5047206;28;20271;-70
2022/03/25 11:10:08;;;;;;;41.15;20.80;;;15.10;59.30;;;;;;5045944;28;20021;-69
2022/03/25 11:12:34;;;;;;;45.30;21.52;;;15.20;58.70;;;;;;5053177;28;20024;-72
2022/03/25 11:15:01;;;;;;;38.30;20.75;;;15.30;57.50;;;;;;5045265;28;20031;-71
2022/03/25 11:17:27;;;;;;;40.55;19.00;;;15.30;57.80;;;;;;5042299;28;20163;-71
2022/03/25 11:19:56;;;;;;;41.10;18.63;;;15.30;57.20;;;;;;5045305;28;20108;-71
2022/03/25 11:22:24;;;;;;;40.45;19.35;;;15.10;57.40;;;;;;5048484;28;20032;-71
2022/03/25 11:24:56;;;;;;;33.40;18.65;;;15.00;57.00;;;;;;5039457;28;20025;-71
2022/03/25 11:27:27;;;;;;;34.95;19.00;;;14.90;56.80;;;;;;5045818;28;20029;-72
2022/03/25 11:29:57;;;;;;;35.72;18.50;;;14.90;56.70;;;;;;5043792;28;20634;-71
2022/03/25 11:32:24;;;;;;;33.40;17.05;;;14.90;55.90;;;;;;5028924;28;20022;-72
2022/03/25 11:34:55;;;;;;;36.78;16.65;;;14.90;56.10;;;;;;5035553;28;20059;-72
2022/03/25 11:37:22;;;;;;;31.27;15.68;;;14.80;55.90;;;;;;5045611;28;20025;-71
2022/03/25 11:40:36;;;;;;;28.50;15.27;;;15.00;55.10;;;;;;5045720;28;20341;-71
2022/03/25 11:43:19;;;;;;;35.50;16.55;;;15.40;55.00;;;;;;5039722;28;20037;-72
2022/03/25 11:46:01;;;;;;;31.42;16.80;;;15.50;54.10;;;;;;5043154;28;20047;-71
2022/03/25 11:48:26;;;;;;;30.38;16.35;;;15.30;53.80;;;;;;5041939;28;20317;-71
2022/03/25 11:50:56;;;;;;;27.42;16.85;;;15.30;53.60;;;;;;5039799;28;20612;-70
2022/03/25 11:53:22;;;;;;;39.08;17.02;;;15.20;53.90;;;;;;5031187;28;20021;-71
2022/03/25 11:55:58;;;;;;;32.70;16.85;;;15.30;53.90;;;;;;5058266;28;20519;-71
2022/03/25 11:58:25;;;;;;;37.28;17.17;;;15.30;54.00;;;;;;5043210;28;20025;-71
2022/03/25 12:00:56;;;;;;;32.08;17.45;;;15.20;53.80;;;;;;5053519;28;20280;-71
2022/03/25 12:03:43;;;;;;;36.55;17.63;;;15.10;53.40;;;;;;5042069;28;20025;-70
2022/03/25 12:06:10;;;;;;;36.50;17.65;;;15.20;53.50;;;;;;5045581;28;20374;-71
2022/03/25 12:08:36;;;;;;;34.08;15.05;;;15.30;54.00;;;;;;5043943;28;20071;-71
2022/03/25 12:11:07;;;;;;;30.55;13.70;;;15.20;53.50;;;;;;5033010;28;20091;-71
2022/03/25 12:13:54;;;;;;;32.17;15.43;;;15.10;53.00;;;;;;5057780;28;20048;-70
2022/03/25 12:16:44;;;;;;;34.55;15.68;;;15.10;52.30;;;;;;5048930;28;20016;-71
2022/03/25 12:19:28;;;;;;;28.27;14.98;;;15.30;52.90;;;;;;5035348;28;20037;-71
2022/03/25 12:21:57;;;;;;;28.50;14.15;;;15.40;52.00;;;;;;5030572;28;20017;-71
2022/03/25 12:24:24;;;;;;;31.30;13.85;;;15.50;52.30;;;;;;5038142;28;20025;-71
2022/03/25 12:27:00;;;;;;;29.42;13.80;;;15.40;51.40;;;;;;5040333;28;20167;-71
2022/03/25 12:29:36;;;;;;;30.55;13.98;;;15.40;52.60;;;;;;5041387;28;20049;-71
2022/03/25 12:32:04;;;;;;;32.28;14.35;;;15.60;51.20;;;;;;5048883;28;20024;-72
2022/03/25 12:34:41;;;;;;;32.08;14.48;;;15.60;51.30;;;;;;5032470;28;20057;-71
2022/03/25 12:37:10;;;;;;;35.55;14.40;;;15.60;51.00;;;;;;5041822;28;20494;-71
2022/03/25 12:39:36;;;;;;;29.15;13.68;;;15.60;51.00;;;;;;5067834;28;20079;-72
2022/03/25 12:42:10;;;;;;;25.83;12.77;;;15.50;50.70;;;;;;5052414;28;20552;-72
2022/03/25 12:44:37;;;;;;;24.50;11.57;;;15.60;49.70;;;;;;5039053;28;20025;-72
2022/03/25 12:47:03;;;;;;;25.90;11.85;;;15.60;49.70;;;;;;5058585;28;20519;-72